Virgo Phoenix — 3FMO8 — position and weather

sailwx.info

Track history (hours):
 
Tides and Currents Weather Stations Pressure Air Temp Water Temp Dewpoint Dewpoint Depression Visibility Wind Speed Wind Dir Waves Ship Positions

Virgo Phoenix

Last reported at 2018-May-21 10:04 UTC. Time now 2018-May-22 14:05 UTC.
Position N 31°41' E 121°11'.

Length 96 m; draft 6.5 m.

Type: Tanker. MMSI: 370795000.

Date/timePositionNaut miles runAvg speedWind from/ knotsBaromVisibWave heightAir tempDewpointWater temp
2018-May-21 10:04N 31°41' E 121°11'113.2
2018-May-21 09:59N 31°40' E 121°12'613.0
2018-May-21 09:30N 31°36' E 121°17'712.8
2018-May-21 08:59N 31°32' E 121°23'511.1
2018-May-21 08:30N 31°28' E 121°27'2911.0
2018-May-21 05:50N 31°09' E 121°53'611.7
2018-May-21 05:19N 31°06' E 121°59'3 9.1
2018-May-21 05:00N 31°05' E 122°02'5 9.8
2018-May-21 04:30N 31°03' E 122°08'24 1.4
2018-May-20 10:49N 31°01' E 122°36'  
2018-May-13 17:57N 31°12' E 122°50'613.6
2018-May-13 17:30N 31°06' E 122°47'714.3
2018-May-13 17:00N 31°01' E 122°42'2713.2
2018-May-13 14:58N 31°03' E 122°11'711.9
2018-May-13 14:23N 31°04' E 122°03'410.7
2018-May-13 14:00N 31°06' E 121°59'510.4
2018-May-13 13:30N 31°08' E 121°53'6 9.6
2018-May-13 12:54N 31°12' E 121°49'4 9.9
2018-May-13 12:30N 31°15' E 121°46'510.4
2018-May-13 12:00N 31°19' E 121°42'1311.3
2018-May-13 10:53N 31°26' E 121°29'410.2
2018-May-13 10:31N 31°29' E 121°26'510.5
2018-May-13 10:00N 31°32' E 121°21'611.0
2018-May-13 09:30N 31°36' E 121°17'612.4
2018-May-13 09:00N 31°40' E 121°12'4410.6
2018-May-13 04:52N 32°02' E 120°26'  
Track history (hours):
 
Tides and Currents Weather Stations Pressure Air Temp Water Temp Dewpoint Dewpoint Depression Visibility Wind Speed Wind Dir Waves Ship Positions

Virgo Phoenix

Last reported at 2018-May-21 10:04 UTC. Time now 2018-May-22 14:05 UTC.
Position N 31°41' E 121°11'.

Length 96 m; draft 6.5 m.

Type: Tanker. MMSI: 370795000.

Date/timePositionNaut miles runAvg speedWind from/ knotsBaromVisibWave heightAir tempDewpointWater temp
2018-May-21 10:04N 31°41' E 121°11'113.2
2018-May-21 09:59N 31°40' E 121°12'613.0
2018-May-21 09:30N 31°36' E 121°17'712.8
2018-May-21 08:59N 31°32' E 121°23'511.1
2018-May-21 08:30N 31°28' E 121°27'2911.0
2018-May-21 05:50N 31°09' E 121°53'611.7
2018-May-21 05:19N 31°06' E 121°59'3 9.1
2018-May-21 05:00N 31°05' E 122°02'5 9.8
2018-May-21 04:30N 31°03' E 122°08'24 1.4
2018-May-20 10:49N 31°01' E 122°36'  
2018-May-13 17:57N 31°12' E 122°50'613.6
2018-May-13 17:30N 31°06' E 122°47'714.3
2018-May-13 17:00N 31°01' E 122°42'2713.2
2018-May-13 14:58N 31°03' E 122°11'711.9
2018-May-13 14:23N 31°04' E 122°03'410.7
2018-May-13 14:00N 31°06' E 121°59'510.4
2018-May-13 13:30N 31°08' E 121°53'6 9.6
2018-May-13 12:54N 31°12' E 121°49'4 9.9
2018-May-13 12:30N 31°15' E 121°46'510.4
2018-May-13 12:00N 31°19' E 121°42'1311.3
2018-May-13 10:53N 31°26' E 121°29'410.2
2018-May-13 10:31N 31°29' E 121°26'510.5
2018-May-13 10:00N 31°32' E 121°21'611.0
2018-May-13 09:30N 31°36' E 121°17'612.4
2018-May-13 09:00N 31°40' E 121°12'4410.6
2018-May-13 04:52N 32°02' E 120°26'  

Dump ship's entire track history